sensor_id;sensor_type;location;lat;lon;timestamp;temperature;humidity
53432;DHT22;39329;44.754;19.680;2022-08-03T04:35:18;23.70;99.90
53432;DHT22;39329;44.754;19.680;2022-08-03T04:42:39;31.70;99.90
53432;DHT22;39329;44.754;19.680;2022-08-03T04:45:05;33.60;94.40
53432;DHT22;39329;44.754;19.680;2022-08-03T04:47:31;34.10;93.00
53432;DHT22;39329;44.754;19.680;2022-08-03T04:49:58;34.60;92.00
53432;DHT22;39329;44.754;19.680;2022-08-03T04:52:24;35.00;91.30
53432;DHT22;39329;44.754;19.680;2022-08-03T04:54:50;35.40;90.30
53432;DHT22;39329;44.754;19.680;2022-08-03T04:57:17;35.90;89.40
53432;DHT22;39329;44.754;19.680;2022-08-03T04:59:42;36.50;87.40
53432;DHT22;39329;44.754;19.680;2022-08-03T05:02:08;36.70;86.20
53432;DHT22;39329;44.754;19.680;2022-08-03T05:04:34;37.10;84.20
53432;DHT22;39329;44.754;19.680;2022-08-03T05:06:59;37.40;83.10
53432;DHT22;39329;44.754;19.680;2022-08-03T05:09:25;37.70;82.60
53432;DHT22;39329;44.754;19.680;2022-08-03T05:11:50;38.20;81.50
53432;DHT22;39329;44.754;19.680;2022-08-03T05:14:16;38.60;81.30
53432;DHT22;39329;44.754;19.680;2022-08-03T05:19:07;38.80;79.60
53432;DHT22;39329;44.754;19.680;2022-08-03T05:21:33;39.40;77.80
53432;DHT22;39329;44.754;19.680;2022-08-03T05:23:58;39.70;77.40
53432;DHT22;39329;44.754;19.680;2022-08-03T05:26:24;40.00;76.30
53432;DHT22;39329;44.754;19.680;2022-08-03T05:28:50;40.30;76.20
53432;DHT22;39329;44.754;19.680;2022-08-03T05:31:17;40.40;74.70
53432;DHT22;39329;44.754;19.680;2022-08-03T05:33:42;40.70;74.30
53432;DHT22;39329;44.754;19.680;2022-08-03T05:36:09;41.20;73.40
53432;DHT22;39329;44.754;19.680;2022-08-03T05:38:34;41.30;72.90
53432;DHT22;39329;44.754;19.680;2022-08-03T05:41:01;41.00;71.90
53432;DHT22;39329;44.754;19.680;2022-08-03T05:43:26;41.80;90.60
53432;DHT22;39329;44.754;19.680;2022-08-03T05:45:52;41.30;81.30
53432;DHT22;39329;44.754;19.680;2022-08-03T05:48:17;41.40;85.50
53432;DHT22;39329;44.754;19.680;2022-08-03T05:50:43;41.50;70.90
53432;DHT22;39329;44.754;19.680;2022-08-03T05:53:08;41.70;70.70
53432;DHT22;39329;44.754;19.680;2022-08-03T05:55:34;41.30;70.40
53432;DHT22;39329;44.754;19.680;2022-08-03T05:58:00;41.20;70.70
53432;DHT22;39329;44.754;19.680;2022-08-03T06:00:28;41.60;70.60
53432;DHT22;39329;44.754;19.680;2022-08-03T06:02:53;41.70;70.50
53432;DHT22;39329;44.754;19.680;2022-08-03T06:05:19;42.30;69.80
53432;DHT22;39329;44.754;19.680;2022-08-03T06:07:44;42.80;70.00
53432;DHT22;39329;44.754;19.680;2022-08-03T06:10:11;43.10;69.00
53432;DHT22;39329;44.754;19.680;2022-08-03T06:12:36;43.10;68.50
53432;DHT22;39329;44.754;19.680;2022-08-03T06:15:03;42.70;68.20
53432;DHT22;39329;44.754;19.680;2022-08-03T06:17:29;43.20;68.60
53432;DHT22;39329;44.754;19.680;2022-08-03T06:19:54;43.20;67.90
53432;DHT22;39329;44.754;19.680;2022-08-03T06:22:20;43.50;68.00
53432;DHT22;39329;44.754;19.680;2022-08-03T06:24:46;43.00;67.70
53432;DHT22;39329;44.754;19.680;2022-08-03T06:27:11;43.60;68.10
53432;DHT22;39329;44.754;19.680;2022-08-03T06:29:37;43.90;67.20
53432;DHT22;39329;44.754;19.680;2022-08-03T06:32:02;44.10;67.10
53432;DHT22;39329;44.754;19.680;2022-08-03T06:34:28;44.30;66.70
53432;DHT22;39329;44.754;19.680;2022-08-03T06:36:53;44.40;66.40
53432;DHT22;39329;44.754;19.680;2022-08-03T06:39:20;44.30;66.40
53432;DHT22;39329;44.754;19.680;2022-08-03T06:41:45;44.80;66.10
53432;DHT22;39329;44.754;19.680;2022-08-03T06:44:11;44.60;66.20
53432;DHT22;39329;44.754;19.680;2022-08-03T06:46:37;44.50;65.40
53432;DHT22;39329;44.754;19.680;2022-08-03T06:49:03;44.50;65.60
53432;DHT22;39329;44.754;19.680;2022-08-03T06:51:28;44.50;66.00
53432;DHT22;39329;44.754;19.680;2022-08-03T06:53:54;44.60;65.50
53432;DHT22;39329;44.754;19.680;2022-08-03T06:56:19;44.70;65.80
53432;DHT22;39329;44.754;19.680;2022-08-03T06:58:45;44.80;65.00
53432;DHT22;39329;44.754;19.680;2022-08-03T07:01:11;45.00;64.80
53432;DHT22;39329;44.754;19.680;2022-08-03T07:03:37;44.70;64.90
53432;DHT22;39329;44.754;19.680;2022-08-03T07:06:05;44.70;64.60
53432;DHT22;39329;44.754;19.680;2022-08-03T07:08:31;45.00;64.70
53432;DHT22;39329;44.754;19.680;2022-08-03T07:10:56;45.20;64.60
53432;DHT22;39329;44.754;19.680;2022-08-03T07:13:22;44.90;64.10
53432;DHT22;39329;44.754;19.680;2022-08-03T07:15:47;44.40;64.30
53432;DHT22;39329;44.754;19.680;2022-08-03T07:18:13;44.70;65.00
53432;DHT22;39329;44.754;19.680;2022-08-03T07:20:38;45.00;64.80
53432;DHT22;39329;44.754;19.680;2022-08-03T07:23:05;45.00;65.10
53432;DHT22;39329;44.754;19.680;2022-08-03T07:25:30;44.90;64.70
53432;DHT22;39329;44.754;19.680;2022-08-03T07:27:56;44.80;64.50
53432;DHT22;39329;44.754;19.680;2022-08-03T07:30:21;44.80;64.10
53432;DHT22;39329;44.754;19.680;2022-08-03T07:32:47;45.00;65.00
53432;DHT22;39329;44.754;19.680;2022-08-03T07:35:12;45.00;64.50
53432;DHT22;39329;44.754;19.680;2022-08-03T07:37:38;45.00;63.90
53432;DHT22;39329;44.754;19.680;2022-08-03T07:40:04;44.50;64.20
53432;DHT22;39329;44.754;19.680;2022-08-03T07:42:30;44.10;64.20
53432;DHT22;39329;44.754;19.680;2022-08-03T07:44:56;44.50;65.60
53432;DHT22;39329;44.754;19.680;2022-08-03T07:47:22;44.60;64.60
53432;DHT22;39329;44.754;19.680;2022-08-03T07:49:48;44.20;64.40
53432;DHT22;39329;44.754;19.680;2022-08-03T07:52:14;44.50;65.00
53432;DHT22;39329;44.754;19.680;2022-08-03T07:54:58;44.30;64.60
53432;DHT22;39329;44.754;19.680;2022-08-03T07:57:23;44.40;64.70
53432;DHT22;39329;44.754;19.680;2022-08-03T07:59:49;44.10;93.40
53432;DHT22;39329;44.754;19.680;2022-08-03T08:02:14;44.10;64.50
53432;DHT22;39329;44.754;19.680;2022-08-03T08:04:40;43.80;64.60
53432;DHT22;39329;44.754;19.680;2022-08-03T08:07:06;43.90;65.00
53432;DHT22;39329;44.754;19.680;2022-08-03T08:09:32;43.60;64.90
53432;DHT22;39329;44.754;19.680;2022-08-03T08:11:58;43.40;64.90
53432;DHT22;39329;44.754;19.680;2022-08-03T08:14:24;43.40;65.40
53432;DHT22;39329;44.754;19.680;2022-08-03T08:16:49;43.30;65.70
53432;DHT22;39329;44.754;19.680;2022-08-03T08:19:15;43.10;66.60
53432;DHT22;39329;44.754;19.680;2022-08-03T08:21:41;42.80;66.20
53432;DHT22;39329;44.754;19.680;2022-08-03T08:24:07;42.30;66.00
53432;DHT22;39329;44.754;19.680;2022-08-03T08:26:32;42.00;66.00
53432;DHT22;39329;44.754;19.680;2022-08-03T08:28:58;42.60;67.50
53432;DHT22;39329;44.754;19.680;2022-08-03T08:31:23;42.50;66.70
53432;DHT22;39329;44.754;19.680;2022-08-03T08:33:49;42.80;66.70
53432;DHT22;39329;44.754;19.680;2022-08-03T08:36:15;42.30;66.50
53432;DHT22;39329;44.754;19.680;2022-08-03T08:38:40;42.30;67.10
53432;DHT22;39329;44.754;19.680;2022-08-03T08:41:07;42.00;67.00
53432;DHT22;39329;44.754;19.680;2022-08-03T08:43:33;41.30;67.10
53432;DHT22;39329;44.754;19.680;2022-08-03T08:45:58;41.10;66.90
53432;DHT22;39329;44.754;19.680;2022-08-03T08:48:24;40.80;67.10
53432;DHT22;39329;44.754;19.680;2022-08-03T08:50:56;40.70;66.60
53432;DHT22;39329;44.754;19.680;2022-08-03T08:53:24;40.50;66.70
53432;DHT22;39329;44.754;19.680;2022-08-03T08:55:50;40.20;66.70
53432;DHT22;39329;44.754;19.680;2022-08-03T08:58:16;40.40;67.40
53432;DHT22;39329;44.754;19.680;2022-08-03T09:00:43;39.80;66.10
53432;DHT22;39329;44.754;19.680;2022-08-03T09:03:10;39.80;67.20
53432;DHT22;39329;44.754;19.680;2022-08-03T09:05:36;40.10;68.10
53432;DHT22;39329;44.754;19.680;2022-08-03T09:08:04;39.90;67.30
53432;DHT22;39329;44.754;19.680;2022-08-03T09:10:29;39.70;67.20
53432;DHT22;39329;44.754;19.680;2022-08-03T09:12:55;39.80;66.40
53432;DHT22;39329;44.754;19.680;2022-08-03T09:17:46;39.70;66.80
53432;DHT22;39329;44.754;19.680;2022-08-03T09:20:12;39.70;65.90
53432;DHT22;39329;44.754;19.680;2022-08-03T09:25:28;40.00;68.00
53432;DHT22;39329;44.754;19.680;2022-08-03T09:27:54;39.60;65.80
53432;DHT22;39329;44.754;19.680;2022-08-03T09:30:20;39.20;67.00
53432;DHT22;39329;44.754;19.680;2022-08-03T09:32:46;39.30;66.20
53432;DHT22;39329;44.754;19.680;2022-08-03T09:35:14;38.60;66.70
53432;DHT22;39329;44.754;19.680;2022-08-03T09:40:06;38.60;65.50
53432;DHT22;39329;44.754;19.680;2022-08-03T09:42:32;38.90;66.50
53432;DHT22;39329;44.754;19.680;2022-08-03T09:45:03;39.10;67.80
53432;DHT22;39329;44.754;19.680;2022-08-03T09:50:05;39.40;67.00
53432;DHT22;39329;44.754;19.680;2022-08-03T09:52:35;39.20;65.80
53432;DHT22;39329;44.754;19.680;2022-08-03T09:55:11;38.70;65.50
53432;DHT22;39329;44.754;19.680;2022-08-03T09:57:37;38.90;66.20
53432;DHT22;39329;44.754;19.680;2022-08-03T10:00:09;39.10;66.60
53432;DHT22;39329;44.754;19.680;2022-08-03T10:02:36;39.10;66.10
53432;DHT22;39329;44.754;19.680;2022-08-03T10:05:02;39.20;66.10
53432;DHT22;39329;44.754;19.680;2022-08-03T10:07:28;38.80;64.40
53432;DHT22;39329;44.754;19.680;2022-08-03T10:09:55;39.00;64.70
53432;DHT22;39329;44.754;19.680;2022-08-03T10:12:20;38.80;64.40
53432;DHT22;39329;44.754;19.680;2022-08-03T10:14:46;38.90;63.90
53432;DHT22;39329;44.754;19.680;2022-08-03T10:17:12;38.80;64.60
53432;DHT22;39329;44.754;19.680;2022-08-03T10:19:38;38.80;65.10
53432;DHT22;39329;44.754;19.680;2022-08-03T10:22:06;38.60;64.60
53432;DHT22;39329;44.754;19.680;2022-08-03T10:24:33;38.30;64.50
53432;DHT22;39329;44.754;19.680;2022-08-03T10:27:00;38.50;65.80
53432;DHT22;39329;44.754;19.680;2022-08-03T10:29:27;38.60;64.90
53432;DHT22;39329;44.754;19.680;2022-08-03T10:31:55;38.60;65.00
53432;DHT22;39329;44.754;19.680;2022-08-03T10:34:22;38.60;64.50
53432;DHT22;39329;44.754;19.680;2022-08-03T10:36:48;39.00;65.30
53432;DHT22;39329;44.754;19.680;2022-08-03T10:39:18;38.90;65.50
53432;DHT22;39329;44.754;19.680;2022-08-03T10:41:45;38.70;65.20
53432;DHT22;39329;44.754;19.680;2022-08-03T10:44:13;38.60;65.50
53432;DHT22;39329;44.754;19.680;2022-08-03T10:46:42;38.60;65.00
53432;DHT22;39329;44.754;19.680;2022-08-03T10:49:11;38.50;65.30
53432;DHT22;39329;44.754;19.680;2022-08-03T10:51:36;38.20;64.60
53432;DHT22;39329;44.754;19.680;2022-08-03T10:54:02;38.60;65.60
53432;DHT22;39329;44.754;19.680;2022-08-03T11:02:04;38.40;65.10
53432;DHT22;39329;44.754;19.680;2022-08-03T11:04:32;38.40;65.20
53432;DHT22;39329;44.754;19.680;2022-08-03T11:09:45;38.80;65.80
53432;DHT22;39329;44.754;19.680;2022-08-03T11:12:21;38.90;65.30
53432;DHT22;39329;44.754;19.680;2022-08-03T11:14:47;38.70;65.10
53432;DHT22;39329;44.754;19.680;2022-08-03T11:17:13;39.00;65.90
53432;DHT22;39329;44.754;19.680;2022-08-03T11:19:45;39.10;66.00
53432;DHT22;39329;44.754;19.680;2022-08-03T11:22:11;39.10;64.80
53432;DHT22;39329;44.754;19.680;2022-08-03T11:27:17;39.20;65.50
53432;DHT22;39329;44.754;19.680;2022-08-03T11:38:00;39.20;65.30
53432;DHT22;39329;44.754;19.680;2022-08-03T11:40:38;39.30;65.00
53432;DHT22;39329;44.754;19.680;2022-08-03T11:45:56;39.20;65.50
53432;DHT22;39329;44.754;19.680;2022-08-03T11:48:22;39.50;64.80
53432;DHT22;39329;44.754;19.680;2022-08-03T11:50:51;39.30;64.00
53432;DHT22;39329;44.754;19.680;2022-08-03T11:53:17;39.50;64.50
53432;DHT22;39329;44.754;19.680;2022-08-03T11:55:43;39.40;64.10
53432;DHT22;39329;44.754;19.680;2022-08-03T11:58:19;39.60;64.30
53432;DHT22;39329;44.754;19.680;2022-08-03T12:00:45;39.70;63.50
53432;DHT22;39329;44.754;19.680;2022-08-03T12:03:12;39.40;63.30
53432;DHT22;39329;44.754;19.680;2022-08-03T12:05:46;38.90;63.50
53432;DHT22;39329;44.754;19.680;2022-08-03T12:08:12;39.00;64.40
53432;DHT22;39329;44.754;19.680;2022-08-03T12:10:39;39.00;63.80
53432;DHT22;39329;44.754;19.680;2022-08-03T12:13:05;39.10;63.20
53432;DHT22;39329;44.754;19.680;2022-08-03T12:15:33;39.10;64.20
53432;DHT22;39329;44.754;19.680;2022-08-03T12:22:51;39.40;64.80
53432;DHT22;39329;44.754;19.680;2022-08-03T12:25:20;39.40;63.90
53432;DHT22;39329;44.754;19.680;2022-08-03T12:27:46;39.20;63.90
53432;DHT22;39329;44.754;19.680;2022-08-03T12:30:14;39.10;64.00
53432;DHT22;39329;44.754;19.680;2022-08-03T12:32:41;39.20;63.90
53432;DHT22;39329;44.754;19.680;2022-08-03T12:35:07;39.10;63.50
53432;DHT22;39329;44.754;19.680;2022-08-03T12:37:32;38.80;63.40
53432;DHT22;39329;44.754;19.680;2022-08-03T12:39:58;39.10;64.10
53432;DHT22;39329;44.754;19.680;2022-08-03T12:44:51;39.40;64.60
53432;DHT22;39329;44.754;19.680;2022-08-03T12:47:18;39.70;63.60
53432;DHT22;39329;44.754;19.680;2022-08-03T12:49:50;39.80;63.20
53432;DHT22;39329;44.754;19.680;2022-08-03T12:52:17;39.50;63.00
53432;DHT22;39329;44.754;19.680;2022-08-03T12:54:52;39.50;63.50
53432;DHT22;39329;44.754;19.680;2022-08-03T12:57:18;39.20;65.50
53432;DHT22;39329;44.754;19.680;2022-08-03T12:59:44;39.10;65.40
53432;DHT22;39329;44.754;19.680;2022-08-03T13:02:22;38.40;64.90
53432;DHT22;39329;44.754;19.680;2022-08-03T13:04:48;37.60;64.90
53432;DHT22;39329;44.754;19.680;2022-08-03T13:07:14;37.20;66.00
53432;DHT22;39329;44.754;19.680;2022-08-03T13:12:07;36.80;67.20
53432;DHT22;39329;44.754;19.680;2022-08-03T13:14:33;36.30;67.40
53432;DHT22;39329;44.754;19.680;2022-08-03T13:16:59;36.10;67.80
53432;DHT22;39329;44.754;19.680;2022-08-03T13:19:25;36.10;71.10
53432;DHT22;39329;44.754;19.680;2022-08-03T13:21:50;36.10;68.00
53432;DHT22;39329;44.754;19.680;2022-08-03T13:24:16;36.00;68.20
53432;DHT22;39329;44.754;19.680;2022-08-03T13:26:41;36.00;68.90
53432;DHT22;39329;44.754;19.680;2022-08-03T13:29:07;36.10;68.30
53432;DHT22;39329;44.754;19.680;2022-08-03T13:31:33;36.10;68.20
53432;DHT22;39329;44.754;19.680;2022-08-03T13:33:58;36.10;68.40
53432;DHT22;39329;44.754;19.680;2022-08-03T13:36:24;36.10;68.10
53432;DHT22;39329;44.754;19.680;2022-08-03T13:38:49;36.40;68.20
53432;DHT22;39329;44.754;19.680;2022-08-03T13:41:15;36.50;68.20
53432;DHT22;39329;44.754;19.680;2022-08-03T13:43:40;36.50;67.80
53432;DHT22;39329;44.754;19.680;2022-08-03T13:46:06;36.50;67.90
53432;DHT22;39329;44.754;19.680;2022-08-03T13:48:31;36.50;67.30
53432;DHT22;39329;44.754;19.680;2022-08-03T13:50:57;37.00;67.90
53432;DHT22;39329;44.754;19.680;2022-08-03T13:53:23;37.40;67.10
53432;DHT22;39329;44.754;19.680;2022-08-03T13:55:48;37.50;97.60
53432;DHT22;39329;44.754;19.680;2022-08-03T13:58:14;37.50;67.00
53432;DHT22;39329;44.754;19.680;2022-08-03T14:00:39;37.80;67.40
53432;DHT22;39329;44.754;19.680;2022-08-03T14:03:05;37.90;66.70
53432;DHT22;39329;44.754;19.680;2022-08-03T14:05:31;37.80;65.90
53432;DHT22;39329;44.754;19.680;2022-08-03T14:07:56;37.90;66.90
53432;DHT22;39329;44.754;19.680;2022-08-03T14:10:22;38.00;66.80
53432;DHT22;39329;44.754;19.680;2022-08-03T14:12:47;38.00;66.50
53432;DHT22;39329;44.754;19.680;2022-08-03T14:15:13;37.90;66.20
53432;DHT22;39329;44.754;19.680;2022-08-03T14:17:39;37.90;65.80
53432;DHT22;39329;44.754;19.680;2022-08-03T14:20:05;37.70;65.90
53432;DHT22;39329;44.754;19.680;2022-08-03T14:22:31;37.60;65.90
53432;DHT22;39329;44.754;19.680;2022-08-03T14:24:57;37.40;65.50
53432;DHT22;39329;44.754;19.680;2022-08-03T14:27:22;37.30;66.30
53432;DHT22;39329;44.754;19.680;2022-08-03T14:29:48;37.40;66.30
53432;DHT22;39329;44.754;19.680;2022-08-03T14:32:13;37.40;65.30
53432;DHT22;39329;44.754;19.680;2022-08-03T14:34:39;37.40;65.50
53432;DHT22;39329;44.754;19.680;2022-08-03T14:37:05;37.40;66.10
53432;DHT22;39329;44.754;19.680;2022-08-03T14:39:30;37.60;66.40
53432;DHT22;39329;44.754;19.680;2022-08-03T14:41:56;37.40;65.30
53432;DHT22;39329;44.754;19.680;2022-08-03T14:44:21;37.40;65.60
53432;DHT22;39329;44.754;19.680;2022-08-03T14:46:47;37.30;66.10
53432;DHT22;39329;44.754;19.680;2022-08-03T14:49:12;37.20;65.70
53432;DHT22;39329;44.754;19.680;2022-08-03T14:51:38;37.30;65.50
53432;DHT22;39329;44.754;19.680;2022-08-03T14:54:03;37.40;65.60
53432;DHT22;39329;44.754;19.680;2022-08-03T14:56:29;37.40;65.60
53432;DHT22;39329;44.754;19.680;2022-08-03T14:58:54;37.50;65.50
53432;DHT22;39329;44.754;19.680;2022-08-03T15:01:20;37.50;64.50
53432;DHT22;39329;44.754;19.680;2022-08-03T15:03:45;37.30;64.70
53432;DHT22;39329;44.754;19.680;2022-08-03T15:06:12;37.40;65.20
53432;DHT22;39329;44.754;19.680;2022-08-03T15:08:38;37.60;65.50
53432;DHT22;39329;44.754;19.680;2022-08-03T15:11:04;37.70;65.10
53432;DHT22;39329;44.754;19.680;2022-08-03T15:13:29;37.70;64.40
53432;DHT22;39329;44.754;19.680;2022-08-03T15:15:55;37.80;65.10
53432;DHT22;39329;44.754;19.680;2022-08-03T15:18:22;37.60;65.30
53432;DHT22;39329;44.754;19.680;2022-08-03T15:20:47;37.50;64.60
53432;DHT22;39329;44.754;19.680;2022-08-03T15:23:15;37.70;65.80
53432;DHT22;39329;44.754;19.680;2022-08-03T15:25:41;37.50;64.90
53432;DHT22;39329;44.754;19.680;2022-08-03T15:28:07;37.60;64.80
53432;DHT22;39329;44.754;19.680;2022-08-03T15:30:32;37.30;63.70
53432;DHT22;39329;44.754;19.680;2022-08-03T15:33:01;37.20;64.00
53432;DHT22;39329;44.754;19.680;2022-08-03T15:35:26;37.20;64.40
53432;DHT22;39329;44.754;19.680;2022-08-03T15:37:53;37.10;64.50
53432;DHT22;39329;44.754;19.680;2022-08-03T15:40:18;37.10;64.60
53432;DHT22;39329;44.754;19.680;2022-08-03T15:42:44;37.20;65.10
53432;DHT22;39329;44.754;19.680;2022-08-03T15:45:09;37.10;64.00
53432;DHT22;39329;44.754;19.680;2022-08-03T15:47:35;37.00;63.90
53432;DHT22;39329;44.754;19.680;2022-08-03T15:50:01;37.00;64.50
53432;DHT22;39329;44.754;19.680;2022-08-03T15:52:26;36.90;64.50
53432;DHT22;39329;44.754;19.680;2022-08-03T15:54:52;36.80;64.40
53432;DHT22;39329;44.754;19.680;2022-08-03T15:57:18;36.60;64.10
53432;DHT22;39329;44.754;19.680;2022-08-03T15:59:43;36.60;64.00
53432;DHT22;39329;44.754;19.680;2022-08-03T16:02:09;36.50;64.20
53432;DHT22;39329;44.754;19.680;2022-08-03T16:04:34;36.50;64.40
53432;DHT22;39329;44.754;19.680;2022-08-03T16:07:00;36.30;64.40
53432;DHT22;39329;44.754;19.680;2022-08-03T16:09:26;36.20;64.50
53432;DHT22;39329;44.754;19.680;2022-08-03T16:11:51;36.10;64.70
53432;DHT22;39329;44.754;19.680;2022-08-03T16:14:17;36.00;67.90
53432;DHT22;39329;44.754;19.680;2022-08-03T16:16:42;35.80;85.00
53432;DHT22;39329;44.754;19.680;2022-08-03T16:19:08;35.70;78.50
53432;DHT22;39329;44.754;19.680;2022-08-03T16:21:33;35.60;91.80
53432;DHT22;39329;44.754;19.680;2022-08-03T16:23:59;35.60;81.90
53432;DHT22;39329;44.754;19.680;2022-08-03T16:26:26;35.50;96.80
53432;DHT22;39329;44.754;19.680;2022-08-03T16:28:51;35.40;65.40
53432;DHT22;39329;44.754;19.680;2022-08-03T16:31:17;35.40;65.30
53432;DHT22;39329;44.754;19.680;2022-08-03T16:33:43;35.40;65.00
53432;DHT22;39329;44.754;19.680;2022-08-03T16:36:08;35.40;70.70
53432;DHT22;39329;44.754;19.680;2022-08-03T16:38:34;35.40;91.10
53432;DHT22;39329;44.754;19.680;2022-08-03T16:40:59;35.40;93.60
53432;DHT22;39329;44.754;19.680;2022-08-03T16:43:25;35.50;92.10
53432;DHT22;39329;44.754;19.680;2022-08-03T16:45:50;35.20;66.30
53432;DHT22;39329;44.754;19.680;2022-08-03T16:48:16;35.10;71.50
53432;DHT22;39329;44.754;19.680;2022-08-03T16:50:42;35.00;85.20
53432;DHT22;39329;44.754;19.680;2022-08-03T16:53:09;34.80;67.10
53432;DHT22;39329;44.754;19.680;2022-08-03T16:55:35;34.80;93.80
53432;DHT22;39329;44.754;19.680;2022-08-03T16:58:01;34.70;67.20
53432;DHT22;39329;44.754;19.680;2022-08-03T17:00:27;34.60;66.60
53432;DHT22;39329;44.754;19.680;2022-08-03T17:02:54;34.60;67.00
53432;DHT22;39329;44.754;19.680;2022-08-03T17:05:20;34.70;67.20
53432;DHT22;39329;44.754;19.680;2022-08-03T17:07:45;34.50;67.10
53432;DHT22;39329;44.754;19.680;2022-08-03T17:10:12;34.50;67.00
53432;DHT22;39329;44.754;19.680;2022-08-03T17:12:38;34.50;67.50
53432;DHT22;39329;44.754;19.680;2022-08-03T17:15:04;34.40;68.00
53432;DHT22;39329;44.754;19.680;2022-08-03T17:17:30;34.40;69.90
53432;DHT22;39329;44.754;19.680;2022-08-03T17:19:56;34.30;67.80
53432;DHT22;39329;44.754;19.680;2022-08-03T17:22:23;34.30;68.30
53432;DHT22;39329;44.754;19.680;2022-08-03T17:24:51;34.40;70.50
53432;DHT22;39329;44.754;19.680;2022-08-03T17:27:24;34.40;77.80
53432;DHT22;39329;44.754;19.680;2022-08-03T17:29:53;34.30;71.90
53432;DHT22;39329;44.754;19.680;2022-08-03T17:32:20;34.20;68.80
53432;DHT22;39329;44.754;19.680;2022-08-03T17:34:46;34.10;69.70
53432;DHT22;39329;44.754;19.680;2022-08-03T17:37:13;34.20;84.90
53432;DHT22;39329;44.754;19.680;2022-08-03T17:39:40;34.20;84.50
53432;DHT22;39329;44.754;19.680;2022-08-03T17:42:06;34.10;85.50
53432;DHT22;39329;44.754;19.680;2022-08-03T17:44:32;34.00;74.90
53432;DHT22;39329;44.754;19.680;2022-08-03T17:46:58;34.00;70.30
53432;DHT22;39329;44.754;19.680;2022-08-03T17:49:23;33.90;70.20
53432;DHT22;39329;44.754;19.680;2022-08-03T17:51:56;33.90;70.20
53432;DHT22;39329;44.754;19.680;2022-08-03T17:54:44;33.80;71.00
53432;DHT22;39329;44.754;19.680;2022-08-03T17:57:08;33.80;71.00
53432;DHT22;39329;44.754;19.680;2022-08-03T18:05:09;33.60;70.70
53432;DHT22;39329;44.754;19.680;2022-08-03T18:07:37;33.50;71.30
53432;DHT22;39329;44.754;19.680;2022-08-03T18:10:03;33.50;71.20
53432;DHT22;39329;44.754;19.680;2022-08-03T18:12:30;33.40;71.40
53432;DHT22;39329;44.754;19.680;2022-08-03T18:14:59;33.40;71.20
53432;DHT22;39329;44.754;19.680;2022-08-03T18:17:26;33.30;71.60
53432;DHT22;39329;44.754;19.680;2022-08-03T18:19:52;33.30;72.10
53432;DHT22;39329;44.754;19.680;2022-08-03T18:22:18;33.30;72.20
53432;DHT22;39329;44.754;19.680;2022-08-03T18:24:44;33.30;72.20
53432;DHT22;39329;44.754;19.680;2022-08-03T18:27:11;33.20;72.20
53432;DHT22;39329;44.754;19.680;2022-08-03T18:29:40;33.20;71.70
53432;DHT22;39329;44.754;19.680;2022-08-03T18:32:07;33.10;73.10
53432;DHT22;39329;44.754;19.680;2022-08-03T18:34:33;33.10;73.30
53432;DHT22;39329;44.754;19.680;2022-08-03T18:37:00;33.00;73.30
53432;DHT22;39329;44.754;19.680;2022-08-03T18:39:26;33.00;78.00
53432;DHT22;39329;44.754;19.680;2022-08-03T18:41:52;32.90;76.10
53432;DHT22;39329;44.754;19.680;2022-08-03T18:44:18;32.80;90.60
53432;DHT22;39329;44.754;19.680;2022-08-03T18:46:45;32.80;75.00
53432;DHT22;39329;44.754;19.680;2022-08-03T18:51:39;32.60;90.00
53432;DHT22;39329;44.754;19.680;2022-08-03T18:56:50;32.60;94.10
53432;DHT22;39329;44.754;19.680;2022-08-03T18:59:37;32.60;89.80
53432;DHT22;39329;44.754;19.680;2022-08-03T19:02:05;32.60;91.70
53432;DHT22;39329;44.754;19.680;2022-08-03T19:04:32;32.40;78.10
53432;DHT22;39329;44.754;19.680;2022-08-03T19:07:03;32.30;75.90
53432;DHT22;39329;44.754;19.680;2022-08-03T19:09:33;32.20;76.40
53432;DHT22;39329;44.754;19.680;2022-08-03T19:12:04;32.20;83.40
53432;DHT22;39329;44.754;19.680;2022-08-03T19:14:33;32.00;75.40
53432;DHT22;39329;44.754;19.680;2022-08-03T19:17:03;32.00;76.00
53432;DHT22;39329;44.754;19.680;2022-08-03T19:19:30;32.00;76.50
53432;DHT22;39329;44.754;19.680;2022-08-03T19:21:55;31.90;76.30
53432;DHT22;39329;44.754;19.680;2022-08-03T19:24:22;31.80;76.10
53432;DHT22;39329;44.754;19.680;2022-08-03T19:26:48;31.80;76.20
53432;DHT22;39329;44.754;19.680;2022-08-03T19:29:15;31.70;75.90
53432;DHT22;39329;44.754;19.680;2022-08-03T19:31:42;31.60;75.90
53432;DHT22;39329;44.754;19.680;2022-08-03T19:34:08;31.60;76.00
53432;DHT22;39329;44.754;19.680;2022-08-03T19:36:34;31.50;76.00
53432;DHT22;39329;44.754;19.680;2022-08-03T19:39:00;31.50;76.50
53432;DHT22;39329;44.754;19.680;2022-08-03T19:41:32;31.40;76.30
53432;DHT22;39329;44.754;19.680;2022-08-03T19:43:59;31.30;76.70
53432;DHT22;39329;44.754;19.680;2022-08-03T19:46:27;31.20;76.40
53432;DHT22;39329;44.754;19.680;2022-08-03T19:51:50;31.10;76.80
53432;DHT22;39329;44.754;19.680;2022-08-03T19:54:16;31.00;77.00
53432;DHT22;39329;44.754;19.680;2022-08-03T19:56:45;30.80;77.50
53432;DHT22;39329;44.754;19.680;2022-08-03T19:59:12;30.80;77.50
53432;DHT22;39329;44.754;19.680;2022-08-03T20:01:38;30.80;77.90
53432;DHT22;39329;44.754;19.680;2022-08-03T20:06:30;30.70;77.60
53432;DHT22;39329;44.754;19.680;2022-08-03T20:08:55;30.50;78.50
53432;DHT22;39329;44.754;19.680;2022-08-03T20:11:24;30.40;78.80
53432;DHT22;39329;44.754;19.680;2022-08-03T20:13:50;30.40;86.50
53432;DHT22;39329;44.754;19.680;2022-08-03T20:16:16;30.30;78.60
53432;DHT22;39329;44.754;19.680;2022-08-03T20:18:42;30.20;78.80
53432;DHT22;39329;44.754;19.680;2022-08-03T20:21:12;30.20;79.20
53432;DHT22;39329;44.754;19.680;2022-08-03T20:23:38;30.20;79.10
53432;DHT22;39329;44.754;19.680;2022-08-03T20:26:05;30.10;79.20
53432;DHT22;39329;44.754;19.680;2022-08-03T20:28:33;30.00;79.30
53432;DHT22;39329;44.754;19.680;2022-08-03T20:31:00;30.00;79.70
53432;DHT22;39329;44.754;19.680;2022-08-03T20:33:26;29.90;79.70
53432;DHT22;39329;44.754;19.680;2022-08-03T20:35:51;29.80;80.10
53432;DHT22;39329;44.754;19.680;2022-08-03T20:38:17;29.80;80.00
53432;DHT22;39329;44.754;19.680;2022-08-03T20:40:42;29.70;80.20
53432;DHT22;39329;44.754;19.680;2022-08-03T20:43:08;29.60;80.70
53432;DHT22;39329;44.754;19.680;2022-08-03T20:45:34;29.50;81.00
53432;DHT22;39329;44.754;19.680;2022-08-03T20:47:59;29.50;84.70
53432;DHT22;39329;44.754;19.680;2022-08-03T20:50:25;29.40;81.20